createdAt,value
2023-07-12T00:02:24.813Z,30.03
2023-07-12T00:04:51.302Z,30.04
2023-07-12T00:07:17.675Z,30.01
2023-07-12T00:09:44.074Z,29.97
2023-07-12T00:12:10.497Z,30.06
2023-07-12T00:14:36.883Z,30.01
2023-07-12T00:17:03.315Z,29.94
2023-07-12T00:19:29.724Z,30.01
2023-07-12T00:21:56.121Z,30.14
2023-07-12T00:24:22.528Z,30.11
2023-07-12T00:26:48.913Z,29.87
2023-07-12T00:29:15.311Z,30.07
2023-07-12T00:31:41.716Z,30.01
2023-07-12T00:34:08.163Z,30.05
2023-07-12T00:36:34.614Z,30.09
2023-07-12T00:39:01.034Z,30.12
2023-07-12T00:41:27.422Z,30.01
2023-07-12T00:43:53.769Z,29.98
2023-07-12T00:46:20.240Z,29.98
2023-07-12T00:48:46.926Z,30.03
2023-07-12T00:51:13.319Z,29.96
2023-07-12T00:53:39.833Z,29.92
2023-07-12T00:56:06.206Z,29.97
2023-07-12T00:58:32.565Z,29.98
2023-07-12T01:00:58.945Z,29.99
2023-07-12T01:03:25.388Z,30.01
2023-07-12T01:05:51.818Z,29.90
2023-07-12T01:08:18.236Z,29.90
2023-07-12T01:10:44.697Z,29.94
2023-07-12T01:13:11.081Z,29.74
2023-07-12T01:15:37.492Z,29.85
2023-07-12T01:18:03.965Z,29.81
2023-07-12T01:20:30.376Z,29.74
2023-07-12T01:22:56.772Z,29.74
2023-07-12T01:25:23.183Z,29.77
2023-07-12T01:27:49.574Z,29.85
2023-07-12T01:30:15.944Z,29.78
2023-07-12T01:32:42.446Z,29.74
2023-07-12T01:35:08.866Z,29.71
2023-07-12T01:37:35.280Z,29.72
2023-07-12T01:40:01.722Z,29.63
2023-07-12T01:42:28.115Z,29.67
2023-07-12T01:44:54.502Z,29.69
2023-07-12T01:47:20.859Z,29.90
2023-07-12T01:49:47.216Z,29.78
2023-07-12T01:52:13.567Z,29.79
2023-07-12T01:54:39.967Z,29.77
2023-07-12T01:57:06.333Z,29.73
2023-07-12T01:59:34.283Z,29.74
2023-07-12T02:02:00.757Z,29.81
2023-07-12T02:04:27.215Z,29.70
2023-07-12T02:06:53.629Z,29.68
2023-07-12T02:09:20.030Z,29.66
2023-07-12T02:11:46.437Z,29.69
2023-07-12T02:14:12.858Z,29.60
2023-07-12T02:16:39.272Z,29.76
2023-07-12T02:19:05.670Z,29.73
2023-07-12T02:21:32.055Z,29.68
2023-07-12T02:23:58.447Z,29.57
2023-07-12T02:26:24.841Z,29.57
2023-07-12T02:28:51.256Z,29.67
2023-07-12T02:31:17.788Z,29.64
2023-07-12T02:33:44.173Z,29.48
2023-07-12T02:36:10.539Z,29.66
2023-07-12T02:38:36.937Z,29.67
2023-07-12T02:41:03.341Z,29.62
2023-07-12T02:43:29.735Z,29.64
2023-07-12T02:45:56.100Z,29.53
2023-07-12T02:48:22.514Z,29.66
2023-07-12T02:50:48.892Z,29.53
2023-07-12T02:53:15.289Z,29.40
2023-07-12T02:55:41.704Z,29.55
2023-07-12T02:58:08.139Z,29.52
2023-07-12T03:00:34.510Z,29.30
2023-07-12T03:03:00.885Z,29.48
2023-07-12T03:05:27.309Z,29.51
2023-07-12T03:07:53.686Z,29.53
2023-07-12T03:10:20.087Z,29.50
2023-07-12T03:12:46.490Z,29.49
2023-07-12T03:15:12.872Z,29.41
2023-07-12T03:17:39.316Z,29.38
2023-07-12T03:20:05.719Z,29.34
2023-07-12T03:22:32.180Z,29.41
2023-07-12T03:24:58.585Z,29.33
2023-07-12T03:27:25.012Z,29.27
2023-07-12T03:29:51.391Z,29.31
2023-07-12T03:32:17.747Z,29.21
2023-07-12T03:34:44.231Z,29.32
2023-07-12T03:37:10.594Z,29.27
2023-07-12T03:39:36.953Z,29.23
2023-07-12T03:42:03.340Z,29.27
2023-07-12T03:44:29.770Z,29.26
2023-07-12T03:46:56.182Z,29.05
2023-07-12T03:49:22.553Z,29.27
2023-07-12T03:51:48.946Z,29.23
2023-07-12T03:54:15.354Z,29.26
2023-07-12T03:56:41.732Z,29.25
2023-07-12T03:59:08.094Z,29.16
2023-07-12T04:01:34.580Z,29.19
2023-07-12T04:04:01.101Z,29.15
2023-07-12T04:06:27.566Z,29.18
2023-07-12T04:08:53.924Z,29.07
2023-07-12T04:11:20.303Z,29.05
2023-07-12T04:13:46.784Z,29.12
2023-07-12T04:16:13.213Z,29.12
2023-07-12T04:18:39.672Z,29.16
2023-07-12T04:21:06.337Z,29.17
2023-07-12T04:23:32.840Z,29.15
2023-07-12T04:25:59.259Z,29.18
2023-07-12T04:28:25.670Z,29.08
2023-07-12T04:30:52.082Z,29.15
2023-07-12T04:33:18.475Z,29.00
2023-07-12T04:35:44.889Z,29.06
2023-07-12T04:38:11.303Z,29.09
2023-07-12T04:40:37.669Z,29.07
2023-07-12T04:43:04.109Z,29.03
2023-07-12T04:45:30.542Z,28.90
2023-07-12T04:47:56.988Z,29.02
2023-07-12T04:50:23.390Z,28.86
2023-07-12T04:52:49.884Z,29.00
2023-07-12T04:55:16.269Z,28.91
2023-07-12T04:57:42.611Z,28.93
2023-07-12T05:00:08.989Z,28.95
2023-07-12T05:02:35.382Z,28.97
2023-07-12T05:05:01.811Z,28.96
2023-07-12T05:07:28.229Z,29.03
2023-07-12T05:09:54.734Z,29.00
2023-07-12T05:12:21.088Z,28.91
2023-07-12T05:14:47.469Z,28.85
2023-07-12T05:17:13.846Z,28.76
2023-07-12T05:19:40.236Z,28.78
2023-07-12T05:22:06.655Z,28.86
2023-07-12T05:24:33.025Z,28.91
2023-07-12T05:26:59.469Z,28.91
2023-07-12T05:29:25.876Z,28.91
2023-07-12T05:31:52.325Z,28.83
2023-07-12T05:34:18.759Z,28.78
2023-07-12T05:36:45.159Z,28.86
2023-07-12T05:39:11.508Z,28.72
2023-07-12T05:41:37.890Z,28.81
2023-07-12T05:44:04.268Z,28.71
2023-07-12T05:46:30.702Z,28.78
2023-07-12T05:48:57.112Z,28.82
2023-07-12T05:51:23.505Z,28.74
2023-07-12T05:53:50.038Z,28.70
2023-07-12T05:56:16.465Z,28.75
2023-07-12T05:58:42.859Z,28.78
2023-07-12T06:01:09.500Z,28.77
2023-07-12T06:03:36.063Z,28.74
2023-07-12T06:06:02.540Z,28.72
2023-07-12T06:08:28.958Z,28.56
2023-07-12T06:10:55.356Z,28.75
2023-07-12T06:13:21.726Z,28.70
2023-07-12T06:15:48.090Z,28.66
2023-07-12T06:18:14.603Z,28.71
2023-07-12T06:20:41.173Z,28.68
2023-07-12T06:23:07.572Z,28.62
2023-07-12T06:25:33.961Z,28.73
2023-07-12T06:28:00.356Z,28.47
2023-07-12T06:30:26.932Z,27.92
2023-07-12T06:32:53.315Z,27.67
2023-07-12T06:35:19.738Z,27.32
2023-07-12T06:37:46.125Z,27.21
2023-07-12T06:40:12.562Z,27.16
2023-07-12T06:42:39.036Z,27.08
2023-07-12T06:45:05.404Z,27.09
2023-07-12T06:47:31.866Z,27.30
2023-07-12T06:49:58.245Z,27.31
2023-07-12T06:52:24.614Z,27.25
2023-07-12T06:54:51.023Z,27.11
2023-07-12T06:57:17.397Z,26.94
2023-07-12T06:59:43.808Z,26.92
2023-07-12T07:02:10.221Z,26.68
2023-07-12T07:04:36.777Z,26.79
2023-07-12T07:07:03.164Z,27.17
2023-07-12T07:09:29.566Z,27.41
2023-07-12T07:11:55.923Z,27.44
2023-07-12T07:14:22.275Z,27.43
2023-07-12T07:16:48.651Z,27.61
2023-07-12T07:19:15.216Z,27.57
2023-07-12T07:21:41.655Z,28.00
2023-07-12T07:24:08.016Z,28.22
2023-07-12T07:26:34.419Z,28.30
2023-07-12T07:29:00.826Z,28.55
2023-07-12T07:31:27.261Z,28.13
2023-07-12T07:33:53.672Z,28.11
2023-07-12T07:36:20.075Z,28.06
2023-07-12T07:38:46.444Z,28.27
2023-07-12T07:41:12.826Z,28.38
2023-07-12T07:43:39.252Z,28.36
2023-07-12T07:46:05.668Z,28.62
2023-07-12T07:48:32.189Z,28.80
2023-07-12T07:50:58.574Z,28.76
2023-07-12T07:53:24.943Z,28.69
2023-07-12T07:55:51.405Z,28.90
2023-07-12T07:58:17.774Z,28.98
2023-07-12T08:00:46.465Z,29.00
2023-07-12T08:03:14.508Z,29.11
2023-07-12T08:05:41.035Z,29.17
2023-07-12T08:08:07.530Z,29.15
2023-07-12T08:10:34.210Z,29.14
2023-07-12T08:13:00.605Z,29.12
2023-07-12T08:15:27.024Z,29.15
2023-07-12T08:17:53.612Z,29.25
2023-07-12T08:20:20.126Z,29.00
2023-07-12T08:22:46.569Z,29.27
2023-07-12T08:25:12.984Z,28.85
2023-07-12T08:27:39.335Z,29.16
2023-07-12T08:30:05.691Z,29.27
2023-07-12T08:32:32.147Z,29.27
2023-07-12T08:34:58.562Z,29.32
2023-07-12T08:37:24.951Z,29.06
2023-07-12T08:39:51.350Z,28.96
2023-07-12T08:42:17.773Z,28.93
2023-07-12T08:44:44.134Z,28.74
2023-07-12T08:47:10.499Z,28.83
2023-07-12T08:49:36.886Z,28.78
2023-07-12T08:52:03.305Z,28.77
2023-07-12T08:54:29.719Z,28.76
2023-07-12T08:56:56.085Z,28.91
2023-07-12T08:59:22.459Z,29.01
2023-07-12T09:01:49.059Z,29.22
2023-07-12T09:04:15.490Z,29.34
2023-07-12T09:06:41.925Z,29.06
2023-07-12T09:09:09.103Z,28.93
2023-07-12T09:11:35.540Z,28.78
2023-07-12T09:14:01.984Z,28.69
2023-07-12T09:16:28.432Z,28.65
2023-07-12T09:18:54.875Z,28.77
2023-07-12T09:21:21.247Z,29.00
2023-07-12T09:23:47.622Z,28.98
2023-07-12T09:26:14.038Z,28.93
2023-07-12T09:28:40.397Z,28.94
2023-07-12T09:31:06.939Z,28.84
2023-07-12T09:33:33.448Z,29.03
2023-07-12T09:35:59.855Z,28.87
2023-07-12T09:38:26.242Z,28.81
2023-07-12T09:40:52.632Z,29.06
2023-07-12T09:43:19.038Z,29.26
2023-07-12T09:45:59.680Z,29.35
2023-07-12T09:48:31.782Z,29.48
2023-07-12T09:50:58.128Z,29.52
2023-07-12T09:53:24.520Z,29.14
2023-07-12T09:55:50.893Z,29.01
2023-07-12T09:58:17.344Z,29.14
2023-07-12T10:00:43.846Z,29.10
2023-07-12T10:03:10.266Z,28.94
2023-07-12T10:05:36.730Z,29.13
2023-07-12T10:08:03.127Z,29.30
2023-07-12T10:10:29.518Z,29.29
2023-07-12T10:12:55.918Z,29.30
2023-07-12T10:15:22.332Z,29.18
2023-07-12T10:17:48.747Z,29.11
2023-07-12T10:20:15.189Z,28.97
2023-07-12T10:22:41.603Z,28.86
2023-07-12T10:25:08.013Z,28.90
2023-07-12T10:27:34.411Z,28.91
2023-07-12T10:30:00.815Z,29.19
2023-07-12T10:32:27.196Z,29.01
2023-07-12T10:34:53.590Z,28.92
2023-07-12T10:37:19.964Z,28.76
2023-07-12T10:39:46.335Z,29.04
2023-07-12T10:42:12.746Z,28.97
2023-07-12T10:44:39.093Z,29.14
2023-07-12T10:47:05.543Z,29.15
2023-07-12T10:49:32.234Z,29.13
2023-07-12T10:51:58.609Z,29.13
2023-07-12T10:54:25.009Z,29.12
2023-07-12T10:56:51.367Z,29.27
2023-07-12T10:59:17.721Z,29.30
2023-07-12T11:01:44.074Z,29.24
2023-07-12T11:04:10.432Z,29.26
2023-07-12T11:06:36.837Z,29.36
2023-07-12T11:09:03.257Z,29.26
2023-07-12T11:11:29.614Z,29.23
2023-07-12T11:13:55.980Z,29.24
2023-07-12T11:16:22.410Z,29.21
2023-07-12T11:18:48.865Z,29.21
2023-07-12T11:21:15.311Z,29.23
2023-07-12T11:23:41.714Z,29.19
2023-07-12T11:26:08.088Z,29.21
2023-07-12T11:28:34.491Z,29.17
2023-07-12T11:31:00.927Z,29.21
2023-07-12T11:33:27.351Z,29.16
2023-07-12T11:35:53.716Z,29.06
2023-07-12T11:38:20.132Z,28.85
2023-07-12T11:40:46.548Z,28.50
2023-07-12T11:43:13.143Z,28.52
2023-07-12T11:45:39.567Z,28.55
2023-07-12T11:48:06.289Z,28.47
2023-07-12T11:50:32.738Z,28.54
2023-07-12T11:52:59.168Z,28.51
2023-07-12T11:55:25.612Z,28.49
2023-07-12T11:57:52.036Z,28.36
2023-07-12T12:00:18.495Z,28.23
2023-07-12T12:02:44.928Z,28.12
2023-07-12T12:05:11.425Z,28.20
2023-07-12T12:07:37.922Z,27.92
2023-07-12T12:10:06.275Z,28.09
2023-07-12T12:12:32.960Z,28.00
2023-07-12T12:14:59.747Z,28.07
2023-07-12T12:17:26.238Z,28.16
2023-07-12T12:19:52.873Z,28.35
2023-07-12T12:22:19.777Z,28.32
2023-07-12T12:24:46.377Z,28.24
2023-07-12T12:27:19.802Z,28.24
2023-07-12T12:29:47.459Z,28.08
2023-07-12T12:32:13.903Z,28.16
2023-07-12T12:34:40.378Z,28.23
2023-07-12T12:37:06.775Z,28.08
2023-07-12T12:39:33.148Z,28.14
2023-07-12T12:41:59.569Z,28.02
2023-07-12T12:44:25.966Z,27.96
2023-07-12T12:47:04.839Z,28.19
2023-07-12T12:54:39.766Z,28.21
2023-07-12T13:07:05.583Z,28.01
2023-07-12T13:19:32.480Z,28.19
2023-07-12T13:21:59.147Z,28.17
2023-07-12T13:24:25.672Z,28.20
2023-07-12T13:26:52.080Z,28.23
2023-07-12T13:29:18.493Z,28.37
2023-07-12T13:31:44.943Z,28.06
2023-07-12T13:34:11.814Z,28.31
2023-07-12T13:36:40.152Z,28.39
2023-07-12T13:46:34.472Z,28.54
2023-07-12T13:49:00.836Z,28.57
2023-07-12T13:51:27.187Z,28.64
2023-07-12T13:53:53.591Z,28.51
2023-07-12T13:59:15.951Z,28.48
2023-07-12T14:04:05.023Z,28.56
2023-07-12T14:06:54.582Z,28.50
2023-07-12T14:09:17.889Z,28.59
2023-07-12T14:11:44.343Z,28.64
2023-07-12T14:14:10.742Z,28.62
2023-07-12T14:16:37.109Z,28.56
2023-07-12T14:19:03.497Z,28.52
2023-07-12T14:21:29.847Z,28.51
2023-07-12T14:23:56.265Z,28.64
2023-07-12T14:26:22.676Z,28.57
2023-07-12T14:28:55.464Z,28.61
2023-07-12T14:31:22.599Z,28.63
2023-07-12T14:33:49.063Z,28.62
2023-07-12T14:36:15.458Z,28.63
2023-07-12T14:38:43.914Z,28.60
2023-07-12T14:41:10.979Z,28.58
2023-07-12T14:43:37.325Z,28.64
2023-07-12T14:46:03.731Z,28.70
2023-07-12T14:48:30.149Z,28.74
2023-07-12T14:50:56.506Z,28.75
2023-07-12T14:53:22.902Z,28.78
2023-07-12T14:55:49.273Z,28.80
2023-07-12T14:58:20.593Z,28.82
2023-07-12T15:00:47.941Z,28.84
2023-07-12T15:03:14.608Z,28.74
2023-07-12T15:05:41.100Z,28.81
2023-07-12T15:08:07.504Z,28.81
2023-07-12T15:10:33.865Z,28.84
2023-07-12T15:13:00.411Z,28.90
2023-07-12T15:15:26.879Z,28.90
2023-07-12T15:17:53.404Z,28.78
2023-07-12T15:20:19.936Z,28.92
2023-07-12T15:22:46.785Z,28.90
2023-07-12T15:25:13.227Z,28.88
2023-07-12T15:27:39.603Z,28.95
2023-07-12T15:30:05.974Z,28.92
2023-07-12T15:32:32.362Z,28.94
2023-07-12T15:34:58.777Z,28.96
2023-07-12T15:37:25.179Z,28.94
2023-07-12T15:39:51.601Z,28.99
2023-07-12T15:42:18.014Z,28.97
2023-07-12T15:44:44.409Z,28.88
2023-07-12T15:47:10.804Z,29.03
2023-07-12T15:49:37.363Z,28.82
2023-07-12T15:52:03.750Z,28.91
2023-07-12T15:54:30.099Z,28.98
2023-07-12T15:56:56.492Z,28.87
2023-07-12T15:59:22.887Z,29.00
2023-07-12T16:01:49.304Z,29.01
2023-07-12T16:04:15.724Z,28.99
2023-07-12T16:06:42.140Z,28.99
2023-07-12T16:09:09.885Z,29.06
2023-07-12T16:11:37.133Z,28.94
2023-07-12T16:14:03.493Z,29.01
2023-07-12T16:16:29.875Z,29.01
2023-07-12T16:18:56.345Z,29.01
2023-07-12T16:21:22.751Z,29.00
2023-07-12T16:23:49.184Z,28.98
2023-07-12T16:26:15.555Z,28.94
2023-07-12T16:28:41.922Z,28.94
2023-07-12T16:31:08.394Z,28.86
2023-07-12T16:33:34.774Z,28.94
2023-07-12T16:36:01.201Z,29.06
2023-07-12T16:38:27.580Z,29.00
2023-07-12T16:40:54.005Z,29.09
2023-07-12T16:43:20.414Z,29.06
2023-07-12T16:45:46.788Z,28.95
2023-07-12T16:48:13.184Z,28.96
2023-07-12T16:50:39.593Z,28.98
2023-07-12T16:53:06.031Z,28.86
2023-07-12T16:55:32.479Z,28.81
2023-07-12T16:57:58.836Z,28.87
2023-07-12T17:00:25.238Z,28.97
2023-07-12T17:02:51.764Z,29.04
2023-07-12T17:05:18.264Z,28.93
2023-07-12T17:07:44.691Z,29.04
2023-07-12T17:10:11.039Z,29.12
2023-07-12T17:12:37.442Z,28.90
2023-07-12T17:15:03.900Z,28.78
2023-07-12T17:17:30.352Z,28.74
2023-07-12T17:19:56.831Z,28.85
2023-07-12T17:22:23.311Z,28.90
2023-07-12T17:24:50.817Z,28.83
2023-07-12T17:27:17.238Z,28.89
2023-07-12T17:29:43.600Z,28.83
2023-07-12T17:32:09.998Z,29.03
2023-07-12T17:34:36.445Z,28.84
2023-07-12T17:37:02.822Z,28.81
2023-07-12T17:39:29.219Z,28.71
2023-07-12T17:41:55.660Z,28.72
2023-07-12T17:44:22.015Z,28.77
2023-07-12T17:46:48.416Z,28.83
2023-07-12T17:49:14.826Z,28.92
2023-07-12T17:51:41.242Z,28.78
2023-07-12T17:54:07.622Z,28.75
2023-07-12T17:56:34.014Z,28.99
2023-07-12T17:59:00.386Z,28.82
2023-07-12T18:01:26.827Z,28.91
2023-07-12T18:03:53.356Z,28.86
2023-07-12T18:06:19.832Z,28.84
2023-07-12T18:08:46.220Z,28.77
2023-07-12T18:11:12.587Z,28.78
2023-07-12T18:13:38.985Z,28.85
2023-07-12T18:16:05.428Z,28.82
2023-07-12T18:18:31.828Z,28.77
2023-07-12T18:20:58.199Z,28.92
2023-07-12T18:23:24.589Z,28.75
2023-07-12T18:25:51.032Z,28.87
2023-07-12T18:28:17.438Z,28.73
2023-07-12T18:30:43.837Z,29.00
2023-07-12T18:33:10.214Z,28.73
2023-07-12T18:35:36.625Z,28.87
2023-07-12T18:38:03.011Z,29.07
2023-07-12T18:40:29.419Z,29.13
2023-07-12T18:42:55.871Z,29.07
2023-07-12T18:45:22.288Z,29.13
2023-07-12T18:47:48.708Z,29.09
2023-07-12T18:50:15.278Z,29.05
2023-07-12T18:52:41.692Z,29.05
2023-07-12T18:55:08.136Z,29.02
2023-07-12T18:57:34.491Z,29.02
2023-07-12T19:00:00.886Z,29.07
2023-07-12T19:02:27.304Z,28.90
2023-07-12T19:04:53.755Z,28.80
2023-07-12T19:07:20.189Z,28.90
2023-07-12T19:09:46.572Z,28.78
2023-07-12T19:12:12.978Z,28.89
2023-07-12T19:14:39.404Z,28.77
2023-07-12T19:17:05.879Z,28.73
2023-07-12T19:19:32.309Z,28.67
2023-07-12T19:21:58.686Z,28.67
2023-07-12T19:24:25.144Z,28.67
2023-07-12T19:26:53.083Z,28.76
2023-07-12T19:29:21.417Z,28.74
2023-07-12T19:31:47.990Z,28.63
2023-07-12T19:34:14.465Z,28.64
2023-07-12T19:36:40.870Z,28.64
2023-07-12T19:39:07.269Z,28.57
2023-07-12T19:41:33.649Z,28.59
2023-07-12T19:44:00.056Z,28.69
2023-07-12T19:46:26.530Z,28.60
2023-07-12T19:48:52.935Z,28.67
2023-07-12T19:51:19.364Z,28.56
2023-07-12T19:53:45.738Z,28.67
2023-07-12T19:56:12.469Z,28.55
2023-07-12T19:58:39.032Z,28.41
2023-07-12T20:01:05.423Z,28.42
2023-07-12T20:03:31.917Z,28.52
2023-07-12T20:05:58.535Z,28.58
2023-07-12T20:08:26.494Z,28.48
2023-07-12T20:10:52.865Z,28.52
2023-07-12T20:13:19.261Z,28.56
2023-07-12T20:15:45.694Z,28.57
2023-07-12T20:18:12.182Z,28.64
2023-07-12T20:20:42.285Z,28.66
2023-07-12T20:23:09.234Z,28.58
2023-07-12T20:25:35.638Z,28.60
2023-07-12T20:28:02.330Z,28.69
2023-07-12T20:30:29.505Z,28.64
2023-07-12T20:32:55.936Z,28.65
2023-07-12T20:35:22.408Z,28.59
2023-07-12T20:37:48.802Z,28.70
2023-07-12T20:40:15.209Z,28.65
2023-07-12T20:42:41.586Z,28.61
2023-07-12T20:45:10.934Z,28.71
2023-07-12T20:47:38.383Z,28.73
2023-07-12T20:50:04.771Z,28.68
2023-07-12T20:52:31.167Z,28.73
2023-07-12T20:54:57.532Z,28.64
2023-07-12T20:57:23.912Z,28.65
2023-07-12T20:59:50.290Z,28.64
2023-07-12T21:02:16.691Z,28.67
2023-07-12T21:04:43.115Z,28.62
2023-07-12T21:07:09.522Z,28.66
2023-07-12T21:09:35.924Z,28.58
2023-07-12T21:12:02.341Z,28.51
2023-07-12T21:14:28.738Z,28.61
2023-07-12T21:16:55.156Z,28.64
2023-07-12T21:19:21.568Z,28.66
2023-07-12T21:21:47.966Z,28.70
2023-07-12T21:24:14.373Z,28.72
2023-07-12T21:26:40.828Z,28.63
2023-07-12T21:29:07.251Z,28.66
2023-07-12T21:31:33.773Z,28.54
2023-07-12T21:34:00.271Z,28.63
2023-07-12T21:36:26.690Z,28.69
2023-07-12T21:38:53.142Z,28.57
2023-07-12T21:41:19.567Z,28.65
2023-07-12T21:43:46.000Z,28.62
2023-07-12T21:46:12.578Z,28.67
2023-07-12T21:48:39.304Z,28.65
2023-07-12T21:51:05.738Z,28.59
2023-07-12T21:53:32.211Z,28.61
2023-07-12T21:55:58.605Z,28.50
2023-07-12T21:58:25.153Z,28.59
2023-07-12T22:00:51.677Z,28.59
2023-07-12T22:03:18.144Z,28.53
2023-07-12T22:05:44.567Z,28.61
2023-07-12T22:08:11.080Z,28.55
2023-07-12T22:10:37.487Z,28.64
2023-07-12T22:13:03.993Z,28.57
2023-07-12T22:15:30.421Z,28.63
2023-07-12T22:17:56.898Z,28.53
2023-07-12T22:20:23.282Z,28.56
2023-07-12T22:22:49.775Z,28.64
2023-07-12T22:25:16.174Z,28.59
2023-07-12T22:27:42.571Z,28.57
2023-07-12T22:30:08.977Z,28.54
2023-07-12T22:32:35.420Z,28.65
2023-07-12T22:35:01.882Z,28.61
2023-07-12T22:37:28.270Z,28.62
2023-07-12T22:39:54.676Z,28.58
2023-07-12T22:42:21.056Z,28.57
2023-07-12T22:44:47.652Z,28.51
2023-07-12T22:47:14.073Z,28.60
2023-07-12T22:49:40.627Z,28.61
2023-07-12T22:52:07.012Z,28.62
2023-07-12T22:54:33.588Z,28.55
2023-07-12T22:57:00.075Z,28.60
2023-07-12T22:59:26.509Z,28.57
2023-07-12T23:01:52.933Z,28.62
2023-07-12T23:04:19.341Z,28.59
2023-07-12T23:06:45.723Z,28.59
2023-07-12T23:09:12.111Z,28.59
2023-07-12T23:11:38.498Z,28.61
2023-07-12T23:14:04.940Z,28.64
2023-07-12T23:16:31.377Z,28.67
2023-07-12T23:18:57.823Z,28.46
2023-07-12T23:21:24.201Z,28.45
2023-07-12T23:23:50.630Z,28.60
2023-07-12T23:26:17.002Z,28.58
2023-07-12T23:28:43.389Z,28.63
2023-07-12T23:31:09.827Z,28.55
2023-07-12T23:33:36.260Z,28.44
2023-07-12T23:36:02.658Z,28.63
2023-07-12T23:38:29.059Z,28.55
2023-07-12T23:40:55.477Z,28.59
2023-07-12T23:43:21.922Z,28.50
2023-07-12T23:45:48.348Z,28.47
2023-07-12T23:48:14.744Z,28.51
2023-07-12T23:50:41.129Z,28.52
2023-07-12T23:53:07.529Z,28.42
2023-07-12T23:55:33.927Z,28.47
2023-07-12T23:58:00.280Z,28.45
